sensor_id;sensor_type;location;lat;lon;timestamp;P1;P2;P0
62547;PMS7003;48602;45.192;5.722;2023-03-23T00:01:11;11.00;8.50;6.75
62547;PMS7003;48602;45.192;5.722;2023-03-23T00:03:38;8.25;8.25;7.25
62547;PMS7003;48602;45.192;5.722;2023-03-23T00:06:05;7.75;7.75;7.00
62547;PMS7003;48602;45.192;5.722;2023-03-23T00:08:32;7.00;7.00;5.50
62547;PMS7003;48602;45.192;5.722;2023-03-23T00:11:17;4.00;4.00;4.00
62547;PMS7003;48602;45.192;5.722;2023-03-23T00:13:45;3.75;3.75;3.25
62547;PMS7003;48602;45.192;5.722;2023-03-23T00:16:11;9.00;8.00;7.00
62547;PMS7003;48602;45.192;5.722;2023-03-23T00:18:44;8.25;7.00;6.00
62547;PMS7003;48602;45.192;5.722;2023-03-23T00:21:14;7.50;7.50;6.50
62547;PMS7003;48602;45.192;5.722;2023-03-23T00:23:40;6.50;6.50;6.00
62547;PMS7003;48602;45.192;5.722;2023-03-23T00:26:09;8.75;8.75;7.75
62547;PMS7003;48602;45.192;5.722;2023-03-23T00:28:35;7.00;6.50;5.75
62547;PMS7003;48602;45.192;5.722;2023-03-23T00:31:04;8.00;8.00;6.75
62547;PMS7003;48602;45.192;5.722;2023-03-23T00:33:32;8.00;8.00;7.00
62547;PMS7003;48602;45.192;5.722;2023-03-23T00:36:03;6.50;6.50;6.00
62547;PMS7003;48602;45.192;5.722;2023-03-23T00:38:29;9.00;7.75;6.50
62547;PMS7003;48602;45.192;5.722;2023-03-23T00:40:55;7.75;6.00;5.25
62547;PMS7003;48602;45.192;5.722;2023-03-23T00:43:22;10.00;9.00;7.25
62547;PMS7003;48602;45.192;5.722;2023-03-23T00:45:49;11.50;10.00;7.25
62547;PMS7003;48602;45.192;5.722;2023-03-23T00:48:21;8.00;7.50;6.00
62547;PMS7003;48602;45.192;5.722;2023-03-23T00:50:49;12.00;8.50;7.75
62547;PMS7003;48602;45.192;5.722;2023-03-23T00:53:16;9.25;7.75;7.00
62547;PMS7003;48602;45.192;5.722;2023-03-23T00:55:42;9.75;7.00;7.00
62547;PMS7003;48602;45.192;5.722;2023-03-23T00:58:09;8.00;8.00;7.00
62547;PMS7003;48602;45.192;5.722;2023-03-23T01:00:36;8.00;6.25;6.00
62547;PMS7003;48602;45.192;5.722;2023-03-23T01:03:02;10.75;8.00;7.00
62547;PMS7003;48602;45.192;5.722;2023-03-23T01:05:27;7.75;7.00;4.50
62547;PMS7003;48602;45.192;5.722;2023-03-23T01:07:57;9.00;7.00;6.25
62547;PMS7003;48602;45.192;5.722;2023-03-23T01:10:26;8.50;8.50;7.00
62547;PMS7003;48602;45.192;5.722;2023-03-23T01:12:52;9.75;9.50;8.00
62547;PMS7003;48602;45.192;5.722;2023-03-23T01:15:18;10.75;9.00;7.75
62547;PMS7003;48602;45.192;5.722;2023-03-23T01:17:44;9.75;9.75;7.75
62547;PMS7003;48602;45.192;5.722;2023-03-23T01:20:11;11.25;11.25;9.00
62547;PMS7003;48602;45.192;5.722;2023-03-23T01:22:38;11.25;10.25;9.00
62547;PMS7003;48602;45.192;5.722;2023-03-23T01:25:04;7.75;7.75;6.75
62547;PMS7003;48602;45.192;5.722;2023-03-23T01:27:33;10.00;8.00;7.25
62547;PMS7003;48602;45.192;5.722;2023-03-23T01:29:58;5.75;5.75;5.25
62547;PMS7003;48602;45.192;5.722;2023-03-23T01:32:24;4.50;4.00;2.50
62547;PMS7003;48602;45.192;5.722;2023-03-23T01:34:49;8.00;8.00;7.25
62547;PMS7003;48602;45.192;5.722;2023-03-23T01:37:14;10.50;10.00;7.50
62547;PMS7003;48602;45.192;5.722;2023-03-23T01:39:41;9.75;8.00;7.00
62547;PMS7003;48602;45.192;5.722;2023-03-23T01:42:07;10.75;10.75;8.75
62547;PMS7003;48602;45.192;5.722;2023-03-23T01:46:59;9.00;9.00;8.00
62547;PMS7003;48602;45.192;5.722;2023-03-23T01:49:27;13.25;10.50;7.75
62547;PMS7003;48602;45.192;5.722;2023-03-23T01:51:58;10.25;8.75;8.00
62547;PMS7003;48602;45.192;5.722;2023-03-23T01:54:26;7.75;7.75;6.75
62547;PMS7003;48602;45.192;5.722;2023-03-23T01:56:55;9.00;8.00;7.00
62547;PMS7003;48602;45.192;5.722;2023-03-23T01:59:24;11.00;7.50;6.50
62547;PMS7003;48602;45.192;5.722;2023-03-23T02:01:53;9.00;8.75;8.00
62547;PMS7003;48602;45.192;5.722;2023-03-23T02:04:20;10.00;9.75;8.00
62547;PMS7003;48602;45.192;5.722;2023-03-23T02:06:49;7.25;7.00;6.00
62547;PMS7003;48602;45.192;5.722;2023-03-23T02:09:17;10.75;9.00;8.00
62547;PMS7003;48602;45.192;5.722;2023-03-23T02:11:43;7.50;7.50;7.00
62547;PMS7003;48602;45.192;5.722;2023-03-23T02:14:10;8.25;6.75;5.25
62547;PMS7003;48602;45.192;5.722;2023-03-23T02:28:05;8.50;7.75;6.00
62547;PMS7003;48602;45.192;5.722;2023-03-23T02:30:40;9.00;9.00;7.00
62547;PMS7003;48602;45.192;5.722;2023-03-23T02:35:59;9.75;9.00;7.00
62547;PMS7003;48602;45.192;5.722;2023-03-23T02:39:13;9.00;8.00;6.75
62547;PMS7003;48602;45.192;5.722;2023-03-23T02:41:47;9.25;9.00;7.00
62547;PMS7003;48602;45.192;5.722;2023-03-23T02:44:18;8.00;8.00;6.75
62547;PMS7003;48602;45.192;5.722;2023-03-23T02:46:44;14.50;14.00;11.75
62547;PMS7003;48602;45.192;5.722;2023-03-23T02:49:11;14.50;13.25;11.75
62547;PMS7003;48602;45.192;5.722;2023-03-23T02:51:40;11.25;10.25;10.00
62547;PMS7003;48602;45.192;5.722;2023-03-23T02:54:09;12.50;11.75;10.00
62547;PMS7003;48602;45.192;5.722;2023-03-23T02:56:36;14.75;13.50;11.00
62547;PMS7003;48602;45.192;5.722;2023-03-23T02:59:04;12.50;11.50;8.00
62547;PMS7003;48602;45.192;5.722;2023-03-23T03:03:59;11.25;10.00;8.50
62547;PMS7003;48602;45.192;5.722;2023-03-23T03:11:24;7.75;7.75;6.75
62547;PMS7003;48602;45.192;5.722;2023-03-23T03:13:56;8.50;8.00;7.00
62547;PMS7003;48602;45.192;5.722;2023-03-23T03:16:38;9.00;9.00;7.00
62547;PMS7003;48602;45.192;5.722;2023-03-23T03:21:56;8.75;8.75;7.75
62547;PMS7003;48602;45.192;5.722;2023-03-23T03:24:25;9.75;8.50;6.00
62547;PMS7003;48602;45.192;5.722;2023-03-23T03:26:54;8.00;8.00;6.50
62547;PMS7003;48602;45.192;5.722;2023-03-23T03:29:25;9.50;9.00;8.00
62547;PMS7003;48602;45.192;5.722;2023-03-23T03:31:54;11.50;9.00;7.25
62547;PMS7003;48602;45.192;5.722;2023-03-23T03:34:23;6.25;6.25;5.25
62547;PMS7003;48602;45.192;5.722;2023-03-23T03:36:49;8.75;7.00;6.00
62547;PMS7003;48602;45.192;5.722;2023-03-23T03:39:18;8.00;8.00;7.00
62547;PMS7003;48602;45.192;5.722;2023-03-23T03:41:45;9.00;9.00;8.00
62547;PMS7003;48602;45.192;5.722;2023-03-23T03:44:11;9.50;6.75;6.00
62547;PMS7003;48602;45.192;5.722;2023-03-23T03:46:37;6.50;6.50;5.50
62547;PMS7003;48602;45.192;5.722;2023-03-23T03:49:03;8.50;8.00;6.50
62547;PMS7003;48602;45.192;5.722;2023-03-23T03:51:32;9.50;7.75;7.50
62547;PMS7003;48602;45.192;5.722;2023-03-23T03:53:58;5.00;4.75;4.00
62547;PMS7003;48602;45.192;5.722;2023-03-23T03:56:24;8.00;8.00;7.00
62547;PMS7003;48602;45.192;5.722;2023-03-23T03:58:51;7.00;7.00;6.75
62547;PMS7003;48602;45.192;5.722;2023-03-23T04:01:18;9.75;8.50;7.25
62547;PMS7003;48602;45.192;5.722;2023-03-23T04:03:49;8.25;8.25;6.75
62547;PMS7003;48602;45.192;5.722;2023-03-23T04:06:17;6.50;6.00;5.75
62547;PMS7003;48602;45.192;5.722;2023-03-23T04:08:43;7.75;7.75;7.00
62547;PMS7003;48602;45.192;5.722;2023-03-23T04:11:09;8.75;7.00;6.75
62547;PMS7003;48602;45.192;5.722;2023-03-23T04:13:37;10.50;9.00;8.00
62547;PMS7003;48602;45.192;5.722;2023-03-23T04:16:05;7.75;7.75;7.00
62547;PMS7003;48602;45.192;5.722;2023-03-23T04:18:31;10.00;8.75;7.75
62547;PMS7003;48602;45.192;5.722;2023-03-23T04:20:58;9.00;8.00;7.25
62547;PMS7003;48602;45.192;5.722;2023-03-23T04:23:28;7.75;6.25;5.75
62547;PMS7003;48602;45.192;5.722;2023-03-23T04:25:58;8.00;6.00;5.50
62547;PMS7003;48602;45.192;5.722;2023-03-23T04:28:24;6.25;5.50;5.25
62547;PMS7003;48602;45.192;5.722;2023-03-23T04:30:50;6.50;6.00;5.00
62547;PMS7003;48602;45.192;5.722;2023-03-23T04:33:21;6.50;6.50;5.50
62547;PMS7003;48602;45.192;5.722;2023-03-23T04:35:50;8.00;7.50;6.25
62547;PMS7003;48602;45.192;5.722;2023-03-23T04:38:16;7.00;7.00;7.00
62547;PMS7003;48602;45.192;5.722;2023-03-23T04:40:45;11.25;9.75;7.75
62547;PMS7003;48602;45.192;5.722;2023-03-23T04:43:12;9.00;8.00;7.00
62547;PMS7003;48602;45.192;5.722;2023-03-23T04:45:40;8.00;7.50;6.00
62547;PMS7003;48602;45.192;5.722;2023-03-23T04:48:11;9.25;8.25;7.25
62547;PMS7003;48602;45.192;5.722;2023-03-23T04:50:37;9.25;9.25;8.75
62547;PMS7003;48602;45.192;5.722;2023-03-23T04:53:03;8.00;7.00;7.00
62547;PMS7003;48602;45.192;5.722;2023-03-23T04:55:33;7.00;7.00;6.75
62547;PMS7003;48602;45.192;5.722;2023-03-23T04:58:01;9.00;7.00;6.00
62547;PMS7003;48602;45.192;5.722;2023-03-23T05:00:28;8.00;8.00;7.00
62547;PMS7003;48602;45.192;5.722;2023-03-23T05:02:54;8.00;8.00;7.00
62547;PMS7003;48602;45.192;5.722;2023-03-23T05:05:20;9.75;6.75;6.00
62547;PMS7003;48602;45.192;5.722;2023-03-23T05:07:46;11.25;8.00;6.75
62547;PMS7003;48602;45.192;5.722;2023-03-23T05:10:12;6.75;6.75;5.50
62547;PMS7003;48602;45.192;5.722;2023-03-23T05:12:40;9.00;8.00;7.00
62547;PMS7003;48602;45.192;5.722;2023-03-23T05:15:07;6.50;6.50;6.00
62547;PMS7003;48602;45.192;5.722;2023-03-23T05:17:33;6.00;6.00;5.00
62547;PMS7003;48602;45.192;5.722;2023-03-23T05:19:59;8.00;7.00;7.00
62547;PMS7003;48602;45.192;5.722;2023-03-23T05:22:28;6.75;6.75;6.00
62547;PMS7003;48602;45.192;5.722;2023-03-23T05:24:57;7.75;7.00;6.00
62547;PMS7003;48602;45.192;5.722;2023-03-23T05:27:23;6.75;6.75;5.25
62547;PMS7003;48602;45.192;5.722;2023-03-23T05:29:48;9.25;7.00;6.00
62547;PMS7003;48602;45.192;5.722;2023-03-23T05:32:15;8.50;8.00;7.00
62547;PMS7003;48602;45.192;5.722;2023-03-23T05:34:41;5.00;5.00;4.00
62547;PMS7003;48602;45.192;5.722;2023-03-23T05:37:08;9.00;9.00;7.75
62547;PMS7003;48602;45.192;5.722;2023-03-23T05:39:34;7.25;7.25;6.25
62547;PMS7003;48602;45.192;5.722;2023-03-23T05:42:01;6.00;6.00;5.25
62547;PMS7003;48602;45.192;5.722;2023-03-23T05:44:28;9.00;7.25;7.00
62547;PMS7003;48602;45.192;5.722;2023-03-23T05:46:54;7.00;7.00;7.00
62547;PMS7003;48602;45.192;5.722;2023-03-23T05:49:19;6.25;6.25;6.00
62547;PMS7003;48602;45.192;5.722;2023-03-23T05:51:47;8.25;7.50;7.00
62547;PMS7003;48602;45.192;5.722;2023-03-23T05:54:15;8.50;7.75;6.75
62547;PMS7003;48602;45.192;5.722;2023-03-23T05:56:41;10.00;8.75;6.75
62547;PMS7003;48602;45.192;5.722;2023-03-23T05:59:06;8.00;7.50;6.75
62547;PMS7003;48602;45.192;5.722;2023-03-23T06:01:33;9.00;8.00;7.75
62547;PMS7003;48602;45.192;5.722;2023-03-23T06:03:58;10.75;8.00;7.00
62547;PMS7003;48602;45.192;5.722;2023-03-23T06:06:24;6.50;5.00;4.00
62547;PMS7003;48602;45.192;5.722;2023-03-23T06:08:52;9.25;9.25;8.00
62547;PMS7003;48602;45.192;5.722;2023-03-23T06:11:18;7.00;7.00;6.25
62547;PMS7003;48602;45.192;5.722;2023-03-23T06:13:44;9.25;9.25;7.25
62547;PMS7003;48602;45.192;5.722;2023-03-23T06:16:13;7.75;7.75;7.00
62547;PMS7003;48602;45.192;5.722;2023-03-23T06:18:49;8.00;7.50;6.25
62547;PMS7003;48602;45.192;5.722;2023-03-23T06:21:14;8.25;7.00;6.25
62547;PMS7003;48602;45.192;5.722;2023-03-23T06:23:40;9.50;8.50;7.00
62547;PMS7003;48602;45.192;5.722;2023-03-23T06:26:06;8.50;8.25;7.00
62547;PMS7003;48602;45.192;5.722;2023-03-23T06:28:33;10.75;10.75;8.75
62547;PMS7003;48602;45.192;5.722;2023-03-23T06:31:00;10.00;9.75;8.75
62547;PMS7003;48602;45.192;5.722;2023-03-23T06:33:36;9.25;8.50;7.75
62547;PMS7003;48602;45.192;5.722;2023-03-23T06:36:02;12.25;9.00;8.25
62547;PMS7003;48602;45.192;5.722;2023-03-23T06:38:29;7.75;7.00;6.00
62547;PMS7003;48602;45.192;5.722;2023-03-23T06:40:55;8.25;8.25;7.75
62547;PMS7003;48602;45.192;5.722;2023-03-23T06:43:22;8.25;8.25;7.00
62547;PMS7003;48602;45.192;5.722;2023-03-23T06:45:47;6.75;6.00;5.75
62547;PMS7003;48602;45.192;5.722;2023-03-23T06:48:13;4.00;4.00;4.00
62547;PMS7003;48602;45.192;5.722;2023-03-23T06:50:42;12.25;8.75;7.75
62547;PMS7003;48602;45.192;5.722;2023-03-23T06:53:09;10.75;7.50;6.75
62547;PMS7003;48602;45.192;5.722;2023-03-23T06:55:36;9.25;9.25;8.00
62547;PMS7003;48602;45.192;5.722;2023-03-23T06:58:03;8.25;7.00;6.75
62547;PMS7003;48602;45.192;5.722;2023-03-23T07:00:31;11.50;8.25;6.75
62547;PMS7003;48602;45.192;5.722;2023-03-23T07:02:57;8.00;8.00;7.00
62547;PMS7003;48602;45.192;5.722;2023-03-23T07:05:23;7.50;7.50;6.50
62547;PMS7003;48602;45.192;5.722;2023-03-23T07:07:48;10.00;9.00;6.50
62547;PMS7003;48602;45.192;5.722;2023-03-23T07:10:14;10.00;8.50;6.75
62547;PMS7003;48602;45.192;5.722;2023-03-23T07:12:39;4.50;4.50;3.50
62547;PMS7003;48602;45.192;5.722;2023-03-23T07:15:07;8.00;8.00;7.50
62547;PMS7003;48602;45.192;5.722;2023-03-23T07:17:35;11.25;8.25;7.50
62547;PMS7003;48602;45.192;5.722;2023-03-23T07:20:00;9.75;9.00;7.00
62547;PMS7003;48602;45.192;5.722;2023-03-23T07:22:26;9.00;8.00;7.00
62547;PMS7003;48602;45.192;5.722;2023-03-23T07:24:51;8.00;7.50;6.50
62547;PMS7003;48602;45.192;5.722;2023-03-23T07:27:16;9.00;8.00;7.00
62547;PMS7003;48602;45.192;5.722;2023-03-23T07:29:42;7.75;7.00;6.00
62547;PMS7003;48602;45.192;5.722;2023-03-23T07:32:10;10.50;9.75;8.00
62547;PMS7003;48602;45.192;5.722;2023-03-23T07:34:37;9.25;9.25;8.25
62547;PMS7003;48602;45.192;5.722;2023-03-23T07:37:03;9.50;7.25;7.00
62547;PMS7003;48602;45.192;5.722;2023-03-23T07:39:29;8.75;8.00;7.00
62547;PMS7003;48602;45.192;5.722;2023-03-23T07:41:55;8.25;8.25;7.50
62547;PMS7003;48602;45.192;5.722;2023-03-23T07:44:20;7.00;5.75;5.00
62547;PMS7003;48602;45.192;5.722;2023-03-23T07:46:47;10.50;8.25;7.25
62547;PMS7003;48602;45.192;5.722;2023-03-23T07:49:12;10.25;8.25;7.50
62547;PMS7003;48602;45.192;5.722;2023-03-23T07:51:38;7.00;6.75;6.00
62547;PMS7003;48602;45.192;5.722;2023-03-23T07:54:04;9.50;7.25;6.25
62547;PMS7003;48602;45.192;5.722;2023-03-23T07:56:33;7.75;7.25;6.00
62547;PMS7003;48602;45.192;5.722;2023-03-23T07:59:00;9.00;7.75;6.00
62547;PMS7003;48602;45.192;5.722;2023-03-23T08:01:26;8.00;6.25;6.00
62547;PMS7003;48602;45.192;5.722;2023-03-23T08:03:51;7.00;7.00;6.25
62547;PMS7003;48602;45.192;5.722;2023-03-23T08:06:19;6.00;6.00;5.00
62547;PMS7003;48602;45.192;5.722;2023-03-23T08:08:46;9.00;7.00;6.00
62547;PMS7003;48602;45.192;5.722;2023-03-23T08:11:11;7.75;6.00;6.00
62547;PMS7003;48602;45.192;5.722;2023-03-23T08:13:41;9.25;7.00;6.00
62547;PMS7003;48602;45.192;5.722;2023-03-23T08:16:07;9.75;9.25;7.00
62547;PMS7003;48602;45.192;5.722;2023-03-23T08:18:34;11.00;8.25;7.25
62547;PMS7003;48602;45.192;5.722;2023-03-23T08:21:00;9.25;7.50;6.50
62547;PMS7003;48602;45.192;5.722;2023-03-23T08:23:29;9.00;7.60;7.00
62547;PMS7003;48602;45.192;5.722;2023-03-23T08:25:59;8.25;8.25;7.00
62547;PMS7003;48602;45.192;5.722;2023-03-23T08:28:24;9.50;9.25;7.75
62547;PMS7003;48602;45.192;5.722;2023-03-23T08:30:50;9.00;9.00;7.00
62547;PMS7003;48602;45.192;5.722;2023-03-23T08:33:15;8.00;8.00;7.00
62547;PMS7003;48602;45.192;5.722;2023-03-23T08:35:41;8.00;8.00;6.50
62547;PMS7003;48602;45.192;5.722;2023-03-23T08:38:09;7.25;7.25;6.50
62547;PMS7003;48602;45.192;5.722;2023-03-23T08:40:36;9.50;8.00;7.25
62547;PMS7003;48602;45.192;5.722;2023-03-23T08:43:04;10.25;10.25;8.50
62547;PMS7003;48602;45.192;5.722;2023-03-23T08:45:30;7.75;7.75;7.00
62547;PMS7003;48602;45.192;5.722;2023-03-23T08:47:55;10.25;10.00;9.00
62547;PMS7003;48602;45.192;5.722;2023-03-23T08:50:25;10.25;10.25;7.75
62547;PMS7003;48602;45.192;5.722;2023-03-23T08:52:53;8.25;8.25;5.25
62547;PMS7003;48602;45.192;5.722;2023-03-23T08:55:19;9.75;9.75;7.75
62547;PMS7003;48602;45.192;5.722;2023-03-23T08:57:46;9.50;9.50;7.50
62547;PMS7003;48602;45.192;5.722;2023-03-23T09:00:12;13.75;12.75;9.50
62547;PMS7003;48602;45.192;5.722;2023-03-23T09:02:42;13.25;13.25;11.00
62547;PMS7003;48602;45.192;5.722;2023-03-23T09:05:16;12.50;12.50;10.50
62547;PMS7003;48602;45.192;5.722;2023-03-23T09:07:44;16.00;14.00;11.00
62547;PMS7003;48602;45.192;5.722;2023-03-23T09:10:11;15.50;14.00;11.75
62547;PMS7003;48602;45.192;5.722;2023-03-23T09:12:38;15.25;15.25;11.75
62547;PMS7003;48602;45.192;5.722;2023-03-23T09:15:05;15.25;13.75;11.00
62547;PMS7003;48602;45.192;5.722;2023-03-23T09:17:38;13.50;11.75;10.00
62547;PMS7003;48602;45.192;5.722;2023-03-23T09:20:07;14.00;13.00;10.50
62547;PMS7003;48602;45.192;5.722;2023-03-23T09:22:37;14.25;12.75;11.00
62547;PMS7003;48602;45.192;5.722;2023-03-23T09:25:05;15.50;13.00;10.75
62547;PMS7003;48602;45.192;5.722;2023-03-23T09:27:32;15.75;13.00;10.00
62547;PMS7003;48602;45.192;5.722;2023-03-23T09:29:58;14.25;13.00;10.00
62547;PMS7003;48602;45.192;5.722;2023-03-23T09:32:25;16.00;15.00;11.75
62547;PMS7003;48602;45.192;5.722;2023-03-23T09:34:51;15.00;14.25;12.00
62547;PMS7003;48602;45.192;5.722;2023-03-23T09:37:20;9.25;7.00;6.75
62547;PMS7003;48602;45.192;5.722;2023-03-23T09:39:45;11.25;11.00;8.50
62547;PMS7003;48602;45.192;5.722;2023-03-23T09:45:07;17.25;14.75;11.25
62547;PMS7003;48602;45.192;5.722;2023-03-23T09:47:51;14.25;13.75;10.25
62547;PMS7003;48602;45.192;5.722;2023-03-23T09:50:32;17.25;13.50;10.00
62547;PMS7003;48602;45.192;5.722;2023-03-23T09:55:35;15.00;13.75;10.75
62547;PMS7003;48602;45.192;5.722;2023-03-23T10:03:41;19.50;17.25;13.50
62547;PMS7003;48602;45.192;5.722;2023-03-23T10:06:13;17.75;15.50;12.75
62547;PMS7003;48602;45.192;5.722;2023-03-23T10:08:47;21.00;18.00;13.50
62547;PMS7003;48602;45.192;5.722;2023-03-23T10:19:31;17.25;15.50;10.25
62547;PMS7003;48602;45.192;5.722;2023-03-23T10:22:08;26.00;23.50;15.75
62547;PMS7003;48602;45.192;5.722;2023-03-23T10:24:36;28.25;23.75;17.25
62547;PMS7003;48602;45.192;5.722;2023-03-23T10:32:56;26.00;23.50;16.75
62547;PMS7003;48602;45.192;5.722;2023-03-23T10:35:29;28.33;26.33;18.00
62547;PMS7003;48602;45.192;5.722;2023-03-23T10:38:01;35.00;29.25;18.25
62547;PMS7003;48602;45.192;5.722;2023-03-23T10:40:43;32.33;29.00;21.00
62547;PMS7003;48602;45.192;5.722;2023-03-23T10:43:14;30.75;28.50;19.00
62547;PMS7003;48602;45.192;5.722;2023-03-23T10:45:40;25.25;24.25;15.75
62547;PMS7003;48602;45.192;5.722;2023-03-23T10:48:25;36.00;28.33;19.67
62547;PMS7003;48602;45.192;5.722;2023-03-23T10:50:56;29.00;28.33;18.33
62547;PMS7003;48602;45.192;5.722;2023-03-23T10:53:38;28.75;25.75;17.00
62547;PMS7003;48602;45.192;5.722;2023-03-23T10:56:28;21.50;17.00;12.75
62547;PMS7003;48602;45.192;5.722;2023-03-23T11:01:38;33.00;27.50;17.00
62547;PMS7003;48602;45.192;5.722;2023-03-23T11:04:15;24.50;22.75;17.00
62547;PMS7003;48602;45.192;5.722;2023-03-23T11:06:45;26.00;22.50;16.00
62547;PMS7003;48602;45.192;5.722;2023-03-23T11:09:17;21.50;20.50;14.75
62547;PMS7003;48602;45.192;5.722;2023-03-23T11:11:49;26.75;23.00;15.00
62547;PMS7003;48602;45.192;5.722;2023-03-23T11:16:51;24.25;22.25;17.00
62547;PMS7003;48602;45.192;5.722;2023-03-23T11:19:33;24.25;23.00;15.00
62547;PMS7003;48602;45.192;5.722;2023-03-23T11:24:36;25.00;23.75;15.75
62547;PMS7003;48602;45.192;5.722;2023-03-23T11:27:06;20.25;14.50;10.75
62547;PMS7003;48602;45.192;5.722;2023-03-23T11:29:33;22.50;20.50;15.00
62547;PMS7003;48602;45.192;5.722;2023-03-23T11:37:13;26.00;24.75;18.50
62547;PMS7003;48602;45.192;5.722;2023-03-23T11:42:18;30.33;26.67;17.33
62547;PMS7003;48602;45.192;5.722;2023-03-23T11:44:46;24.25;21.00;16.00
62547;PMS7003;48602;45.192;5.722;2023-03-23T11:47:16;32.50;27.75;19.00
62547;PMS7003;48602;45.192;5.722;2023-03-23T11:55:20;29.00;22.50;17.00
62547;PMS7003;48602;45.192;5.722;2023-03-23T11:57:50;20.25;19.75;15.50
62547;PMS7003;48602;45.192;5.722;2023-03-23T12:00:20;22.00;20.50;13.00
62547;PMS7003;48602;45.192;5.722;2023-03-23T12:03:02;27.00;24.25;16.25
62547;PMS7003;48602;45.192;5.722;2023-03-23T12:05:42;26.75;21.75;13.75
62547;PMS7003;48602;45.192;5.722;2023-03-23T12:28:10;31.00;24.67;18.00
62547;PMS7003;48602;45.192;5.722;2023-03-23T12:33:52;31.25;27.75;18.50
62547;PMS7003;48602;45.192;5.722;2023-03-23T12:36:26;23.00;22.50;15.50
62547;PMS7003;48602;45.192;5.722;2023-03-23T12:39:25;24.75;22.25;17.25
62547;PMS7003;48602;45.192;5.722;2023-03-23T12:42:24;30.25;29.50;17.50
62547;PMS7003;48602;45.192;5.722;2023-03-23T12:47:46;24.75;22.75;16.75
62547;PMS7003;48602;45.192;5.722;2023-03-23T12:50:41;29.25;23.75;15.00
62547;PMS7003;48602;45.192;5.722;2023-03-23T12:53:19;26.25;21.00;16.00
62547;PMS7003;48602;45.192;5.722;2023-03-23T12:58:45;28.75;22.50;16.75
62547;PMS7003;48602;45.192;5.722;2023-03-23T13:01:14;27.67;25.67;15.67
62547;PMS7003;48602;45.192;5.722;2023-03-23T13:06:45;24.75;20.75;13.75
62547;PMS7003;48602;45.192;5.722;2023-03-23T13:09:29;20.25;19.25;15.00
62547;PMS7003;48602;45.192;5.722;2023-03-23T13:12:08;27.00;25.00;18.75
62547;PMS7003;48602;45.192;5.722;2023-03-23T13:25:56;27.50;24.75;17.25
62547;PMS7003;48602;45.192;5.722;2023-03-23T13:28:34;22.00;20.75;14.50
62547;PMS7003;48602;45.192;5.722;2023-03-23T13:31:16;26.75;25.50;19.00
62547;PMS7003;48602;45.192;5.722;2023-03-23T13:33:58;23.50;22.25;14.75
62547;PMS7003;48602;45.192;5.722;2023-03-23T13:36:52;21.25;18.50;15.50
62547;PMS7003;48602;45.192;5.722;2023-03-23T13:39:30;27.00;23.25;17.00
62547;PMS7003;48602;45.192;5.722;2023-03-23T13:57:56;21.75;18.75;13.00
62547;PMS7003;48602;45.192;5.722;2023-03-23T14:00:46;21.00;17.00;12.67
62547;PMS7003;48602;45.192;5.722;2023-03-23T14:03:19;22.25;20.50;13.75
62547;PMS7003;48602;45.192;5.722;2023-03-23T14:08:47;28.25;26.50;16.75
62547;PMS7003;48602;45.192;5.722;2023-03-23T14:11:17;22.50;22.50;16.50
62547;PMS7003;48602;45.192;5.722;2023-03-23T14:13:50;23.25;22.25;17.50
62547;PMS7003;48602;45.192;5.722;2023-03-23T14:19:12;27.50;27.50;19.25
62547;PMS7003;48602;45.192;5.722;2023-03-23T14:21:52;27.50;24.75;19.50
62547;PMS7003;48602;45.192;5.722;2023-03-23T14:24:41;27.67;22.33;16.00
62547;PMS7003;48602;45.192;5.722;2023-03-23T14:27:11;30.33;28.00;19.67
62547;PMS7003;48602;45.192;5.722;2023-03-23T14:29:39;26.50;24.75;18.00
62547;PMS7003;48602;45.192;5.722;2023-03-23T14:32:06;30.00;24.25;18.25
62547;PMS7003;48602;45.192;5.722;2023-03-23T14:34:35;28.25;25.25;17.25
62547;PMS7003;48602;45.192;5.722;2023-03-23T14:37:00;32.25;23.75;18.25
62547;PMS7003;48602;45.192;5.722;2023-03-23T14:39:31;27.00;20.25;15.25
62547;PMS7003;48602;45.192;5.722;2023-03-23T14:42:10;22.25;19.50;12.25
62547;PMS7003;48602;45.192;5.722;2023-03-23T14:44:40;26.00;22.25;15.75
62547;PMS7003;48602;45.192;5.722;2023-03-23T14:49:52;19.75;18.75;12.00
62547;PMS7003;48602;45.192;5.722;2023-03-23T14:52:25;28.50;24.75;18.00
62547;PMS7003;48602;45.192;5.722;2023-03-23T14:54:54;24.50;18.25;13.00
62547;PMS7003;48602;45.192;5.722;2023-03-23T14:59:54;21.00;19.50;13.50
62547;PMS7003;48602;45.192;5.722;2023-03-23T15:02:26;26.50;22.25;14.00
62547;PMS7003;48602;45.192;5.722;2023-03-23T15:07:56;24.75;18.75;13.00
62547;PMS7003;48602;45.192;5.722;2023-03-23T15:10:28;24.50;21.25;15.25
62547;PMS7003;48602;45.192;5.722;2023-03-23T15:12:55;20.75;18.00;14.00
62547;PMS7003;48602;45.192;5.722;2023-03-23T15:15:32;23.50;20.50;12.25
62547;PMS7003;48602;45.192;5.722;2023-03-23T15:18:00;24.00;22.25;14.75
62547;PMS7003;48602;45.192;5.722;2023-03-23T15:20:28;29.00;22.00;15.75
62547;PMS7003;48602;45.192;5.722;2023-03-23T15:23:04;23.25;22.25;16.00
62547;PMS7003;48602;45.192;5.722;2023-03-23T15:25:33;15.00;12.50;11.25
62547;PMS7003;48602;45.192;5.722;2023-03-23T15:31:05;21.25;19.00;14.25
62547;PMS7003;48602;45.192;5.722;2023-03-23T15:33:35;23.25;20.50;16.00
62547;PMS7003;48602;45.192;5.722;2023-03-23T15:36:05;26.25;22.25;15.75
62547;PMS7003;48602;45.192;5.722;2023-03-23T15:38:33;24.00;22.50;17.00
62547;PMS7003;48602;45.192;5.722;2023-03-23T15:41:04;23.75;22.25;16.00
62547;PMS7003;48602;45.192;5.722;2023-03-23T15:43:49;23.25;21.75;15.50
62547;PMS7003;48602;45.192;5.722;2023-03-23T15:46:20;21.75;19.75;15.00
62547;PMS7003;48602;45.192;5.722;2023-03-23T15:48:49;28.50;23.75;18.00
62547;PMS7003;48602;45.192;5.722;2023-03-23T15:51:21;20.00;15.75;10.50
62547;PMS7003;48602;45.192;5.722;2023-03-23T15:53:50;23.25;19.75;15.00
62547;PMS7003;48602;45.192;5.722;2023-03-23T15:56:16;22.75;20.00;16.25
62547;PMS7003;48602;45.192;5.722;2023-03-23T15:58:43;25.75;24.00;17.50
62547;PMS7003;48602;45.192;5.722;2023-03-23T16:01:13;21.25;18.00;13.50
62547;PMS7003;48602;45.192;5.722;2023-03-23T16:03:51;24.25;18.50;13.00
62547;PMS7003;48602;45.192;5.722;2023-03-23T16:06:19;23.00;21.25;16.00
62547;PMS7003;48602;45.192;5.722;2023-03-23T16:08:46;24.00;22.00;16.50
62547;PMS7003;48602;45.192;5.722;2023-03-23T16:11:13;29.00;25.75;16.50
62547;PMS7003;48602;45.192;5.722;2023-03-23T16:13:40;24.75;20.25;14.50
62547;PMS7003;48602;45.192;5.722;2023-03-23T16:16:13;25.50;22.00;16.00
62547;PMS7003;48602;45.192;5.722;2023-03-23T16:18:52;22.25;19.75;15.00
62547;PMS7003;48602;45.192;5.722;2023-03-23T16:21:18;28.50;23.00;18.25
62547;PMS7003;48602;45.192;5.722;2023-03-23T16:23:45;23.50;21.25;16.00
62547;PMS7003;48602;45.192;5.722;2023-03-23T16:26:10;27.25;25.00;18.00
62547;PMS7003;48602;45.192;5.722;2023-03-23T16:28:41;21.50;20.50;15.50
62547;PMS7003;48602;45.192;5.722;2023-03-23T16:31:07;21.75;18.25;13.00
62547;PMS7003;48602;45.192;5.722;2023-03-23T16:33:33;19.50;16.25;10.00
62547;PMS7003;48602;45.192;5.722;2023-03-23T16:36:00;19.75;19.00;13.00
62547;PMS7003;48602;45.192;5.722;2023-03-23T16:38:25;17.25;17.25;13.50
62547;PMS7003;48602;45.192;5.722;2023-03-23T16:40:51;24.50;22.00;15.50
62547;PMS7003;48602;45.192;5.722;2023-03-23T16:43:17;21.75;19.50;15.25
62547;PMS7003;48602;45.192;5.722;2023-03-23T16:45:43;23.75;22.50;16.00
62547;PMS7003;48602;45.192;5.722;2023-03-23T16:48:10;19.75;17.25;12.75